Time;durP1;ratioP1;P1;durP2;ratioP2;P2;SDS_P1;SDS_P2;PMS_P1;PMS_P2;Temp;Humidity;BMP_temperature;BMP_pressure;BME280_temperature;BME280_humidity;BME280_pressure;Samples;Min_cycle;Max_cycle;Signal;HPM_P1;HPM_P2
2022/01/29 00:00:11;;;;;;;1.60;0.22;;;;;;;11.76;100.00;100903.47;4978569;28;20060;-52
2022/01/29 00:03:14;;;;;;;0.60;0.47;;;;;;;11.84;100.00;100906.78;5002822;28;20065;-52
2022/01/29 00:06:18;;;;;;;0.77;0.65;;;;;;;11.92;100.00;100897.66;5043158;28;20205;-52
2022/01/29 00:09:21;;;;;;;6.57;0.50;;;;;;;11.90;100.00;100891.75;5064996;28;20211;-51
2022/01/29 00:12:25;;;;;;;0.15;0.10;;;;;;;11.88;100.00;100883.06;5051225;28;20060;-51
2022/01/29 00:15:29;;;;;;;2.72;0.30;;;;;;;11.89;100.00;100875.47;5033605;28;20100;-52
2022/01/29 00:18:33;;;;;;;2.92;0.80;;;;;;;11.91;100.00;100867.41;5062585;28;20207;-52
2022/01/29 00:21:36;;;;;;;0.10;0.10;;;;;;;11.99;100.00;100861.09;5013434;28;20148;-52
2022/01/29 00:24:40;;;;;;;1.40;0.38;;;;;;;12.02;100.00;100848.97;5017247;28;20048;-52
2022/01/29 00:27:43;;;;;;;0.10;0.10;;;;;;;12.10;100.00;100855.84;5032504;28;20067;-52
2022/01/29 00:30:46;;;;;;;0.10;0.00;;;;;;;12.20;100.00;100837.09;5041785;28;20135;-52
2022/01/29 00:33:50;;;;;;;0.55;0.25;;;;;;;12.27;100.00;100827.63;5038001;28;20560;-52
2022/01/29 00:36:54;;;;;;;0.35;0.13;;;;;;;12.23;100.00;100827.00;5005901;28;20461;-52
2022/01/29 00:39:57;;;;;;;0.57;0.20;;;;;;;12.18;100.00;100820.78;5035526;28;20174;-52
2022/01/29 00:43:00;;;;;;;0.20;0.08;;;;;;;12.22;100.00;100817.84;5038230;28;20060;-52
2022/01/29 00:46:04;;;;;;;0.20;0.10;;;;;;;12.27;100.00;100819.25;5044488;28;20219;-52
2022/01/29 00:49:09;;;;;;;2.25;0.30;;;;;;;12.31;100.00;100811.50;5069813;28;20527;-52
2022/01/29 00:52:12;;;;;;;0.10;0.00;;;;;;;12.15;100.00;100809.75;5059690;28;20556;-52
2022/01/29 00:55:16;;;;;;;0.40;0.20;;;;;;;12.11;100.00;100809.91;5008538;28;20516;-52
2022/01/29 00:58:19;;;;;;;0.63;0.32;;;;;;;12.14;100.00;100813.81;5068703;28;20428;-52
2022/01/29 01:01:22;;;;;;;0.77;0.28;;;;;;;12.09;100.00;100812.41;5038595;28;20052;-52
2022/01/29 01:04:26;;;;;;;0.50;0.17;;;;;;;12.09;100.00;100806.03;5026119;28;20528;-52
2022/01/29 01:07:30;;;;;;;0.55;0.10;;;;;;;12.11;100.00;100809.91;5042864;28;20060;-52
2022/01/29 01:10:33;;;;;;;0.20;0.10;;;;;;;12.13;100.00;100807.44;5084316;28;20059;-52
2022/01/29 01:13:37;;;;;;;1.35;0.52;;;;;;;12.15;100.00;100810.53;5088648;28;20551;-52
2022/01/29 01:16:40;;;;;;;0.95;0.32;;;;;;;12.16;100.00;100812.09;5037554;28;20060;-52
2022/01/29 01:19:45;;;;;;;0.30;0.28;;;;;;;12.07;100.00;100809.28;5024904;28;20128;-52
2022/01/29 01:22:48;;;;;;;0.10;0.10;;;;;;;11.97;100.00;100802.16;5048156;28;20064;-52
2022/01/29 01:25:52;;;;;;;0.20;0.10;;;;;;;11.99;100.00;100798.88;5049122;28;20059;-52
2022/01/29 01:28:56;;;;;;;0.15;0.15;;;;;;;11.97;100.00;100804.94;5047542;28;20072;-52
2022/01/29 01:32:00;;;;;;;0.10;0.10;;;;;;;11.99;100.00;100796.88;5013572;28;20068;-52
2022/01/29 01:35:14;;;;;;;0.10;0.10;;;;;;;12.03;100.00;100793.94;5000544;28;20112;-52
2022/01/29 01:38:26;;;;;;;0.52;0.47;;;;;;;11.99;100.00;100796.88;4982551;28;20064;-52
2022/01/29 01:41:36;;;;;;;0.10;0.10;;;;;;;12.06;100.00;100790.22;5017412;28;20516;-52
2022/01/29 01:44:45;;;;;;;0.85;0.77;;;;;;;12.11;100.00;100793.16;5011688;28;20389;-52
2022/01/29 01:47:48;;;;;;;1.10;0.25;;;;;;;12.14;100.00;100792.25;4975503;28;20069;-52
2022/01/29 01:50:52;;;;;;;0.17;0.10;;;;;;;12.25;100.00;100777.03;4991675;28;20061;-51
2022/01/29 01:53:57;;;;;;;0.20;0.20;;;;;;;12.30;100.00;100776.44;4958216;28;20068;-52
2022/01/29 01:57:00;;;;;;;1.10;0.45;;;;;;;12.25;100.00;100768.66;4973390;28;20514;-51
2022/01/29 02:00:05;;;;;;;0.10;0.10;;;;;;;12.22;100.00;100777.97;4965781;28;20058;-52
2022/01/29 02:03:09;;;;;;;0.10;0.00;;;;;;;12.24;100.00;100769.91;4978594;28;20065;-52
2022/01/29 02:06:14;;;;;;;0.80;0.20;;;;;;;12.30;100.00;100770.84;4959570;28;20061;-52
2022/01/29 02:09:20;;;;;;;0.10;0.10;;;;;;;12.34;100.00;100765.88;4963597;28;20453;-52
2022/01/29 02:12:27;;;;;;;0.40;0.10;;;;;;;12.39;100.00;100745.72;5011065;28;20129;-52
2022/01/29 02:15:31;;;;;;;0.90;0.55;;;;;;;12.44;100.00;100736.69;5066856;28;20106;-52
2022/01/29 02:18:35;;;;;;;0.10;0.10;;;;;;;12.46;100.00;100737.78;5067853;28;20051;-52
2022/01/29 02:21:39;;;;;;;0.25;0.10;;;;;;;12.37;100.00;100732.19;5091065;27;20051;-52
2022/01/29 02:24:43;;;;;;;0.10;0.10;;;;;;;12.33;100.00;100730.81;5103178;28;20074;-53
2022/01/29 02:27:46;;;;;;;2.70;0.38;;;;;;;12.25;100.00;100735.16;5036116;27;20054;-52
2022/01/29 02:30:58;;;;;;;1.95;0.38;;;;;;;12.19;100.00;100738.56;5057117;27;20066;-53
2022/01/29 02:34:03;;;;;;;2.35;0.47;;;;;;;12.27;100.00;100732.66;5044535;28;20051;-53
2022/01/29 02:37:07;;;;;;;0.57;0.57;;;;;;;12.36;100.00;100729.88;5061429;27;20067;-52
2022/01/29 02:40:11;;;;;;;0.20;0.10;;;;;;;12.42;100.00;100734.38;5061880;28;20454;-52
2022/01/29 02:43:26;;;;;;;0.10;0.10;;;;;;;12.48;100.00;100743.69;5066099;27;20067;-53
2022/01/29 02:46:48;;;;;;;0.30;0.30;;;;;;;12.58;100.00;100733.28;5064388;28;20411;-52
2022/01/29 02:49:51;;;;;;;;;;;;;;;12.62;100.00;100723.50;5059159;28;20068;-53
2022/01/29 02:52:55;;;;;;;2.70;0.30;;;;;;;12.68;100.00;100718.03;5060223;28;19920;-52
2022/01/29 02:55:58;;;;;;;4.03;0.40;;;;;;;12.70;100.00;100726.72;5060404;28;20055;-53
2022/01/29 02:59:02;;;;;;;0.20;0.10;;;;;;;12.71;100.00;100717.09;5057543;28;20063;-52
2022/01/29 03:02:05;;;;;;;3.30;0.20;;;;;;;12.70;100.00;100721.13;4980657;28;20057;-52
2022/01/29 03:05:09;;;;;;;0.15;0.15;;;;;;;12.75;100.00;100721.28;5059532;28;20504;-53
2022/01/29 03:08:13;;;;;;;8.52;0.22;;;;;;;12.80;100.00;100719.84;5054151;28;20523;-53
2022/01/29 03:11:19;;;;;;;2.55;0.25;;;;;;;12.78;100.00;100711.16;5064306;28;20063;-52
2022/01/29 03:14:22;;;;;;;0.68;0.30;;;;;;;12.80;100.00;100714.28;5089455;28;20059;-52
2022/01/29 03:17:26;;;;;;;5.40;0.20;;;;;;;12.81;100.00;100704.66;5059094;28;20519;-53
2022/01/29 03:20:30;;;;;;;0.10;0.05;;;;;;;12.76;100.00;100696.88;5046701;28;20072;-52
2022/01/29 03:23:33;;;;;;;0.45;0.30;;;;;;;12.71;100.00;100692.72;5041622;28;20063;-52
2022/01/29 03:26:37;;;;;;;0.60;0.10;;;;;;;12.67;100.00;100688.53;5007656;28;20052;-52
2022/01/29 03:29:40;;;;;;;0.10;0.10;;;;;;;12.66;100.00;100678.59;5061349;28;20504;-53
2022/01/29 03:32:44;;;;;;;0.20;0.20;;;;;;;12.73;100.00;100683.88;5049311;28;20126;-52
2022/01/29 03:35:48;;;;;;;0.10;0.00;;;;;;;12.68;100.00;100678.91;5050603;28;20063;-53
2022/01/29 03:38:52;;;;;;;0.20;0.10;;;;;;;12.58;100.00;100685.78;5082423;28;20064;-52
2022/01/29 03:42:01;;;;;;;0.10;0.00;;;;;;;12.54;100.00;100682.38;5073308;28;20047;-52
2022/01/29 03:45:09;;;;;;;1.55;0.57;;;;;;;12.46;100.00;100673.53;5025910;28;20072;-52
2022/01/29 03:48:12;;;;;;;0.20;0.15;;;;;;;12.38;100.00;100675.09;5031120;28;20432;-53
2022/01/29 03:51:16;;;;;;;0.43;0.20;;;;;;;12.38;100.00;100679.91;5048431;28;20059;-52
2022/01/29 03:54:19;;;;;;;0.10;0.10;;;;;;;12.40;100.00;100675.41;5058119;28;20542;-52
2022/01/29 03:57:23;;;;;;;14.15;0.73;;;;;;;12.45;100.00;100666.38;5073891;28;20400;-52
2022/01/29 04:00:26;;;;;;;5.20;0.30;;;;;;;12.41;100.00;100676.19;5093212;28;20048;-52
2022/01/29 04:03:30;;;;;;;0.28;0.28;;;;;;;12.31;100.00;100664.25;5060006;28;20110;-52
2022/01/29 04:06:33;;;;;;;0.30;0.30;;;;;;;12.37;100.00;100669.97;5041395;28;20055;-52
2022/01/29 04:09:37;;;;;;;0.52;0.10;;;;;;;12.27;100.00;100669.22;5012641;28;20088;-52
2022/01/29 04:12:45;;;;;;;6.80;0.30;;;;;;;12.30;100.00;100665.47;5067920;28;20093;-52
2022/01/29 04:15:48;;;;;;;1.30;0.15;;;;;;;12.39;100.00;100656.34;5009956;28;20080;-52
2022/01/29 04:18:52;;;;;;;0.10;0.10;;;;;;;12.40;100.00;100658.66;4983667;28;20065;-52
2022/01/29 04:21:56;;;;;;;0.38;0.35;;;;;;;12.47;100.00;100657.53;4978962;28;20065;-52
2022/01/29 04:24:59;;;;;;;1.27;0.73;;;;;;;12.48;100.00;100651.47;5008963;28;20073;-53
2022/01/29 04:28:04;;;;;;;0.20;0.10;;;;;;;12.44;100.00;100658.47;4967579;28;20076;-53
2022/01/29 04:31:14;;;;;;;0.30;0.10;;;;;;;12.37;100.00;100664.38;4895053;29;20136;-52
2022/01/29 04:34:17;;;;;;;0.10;0.10;;;;;;;12.28;100.00;100662.38;4985686;28;20530;-52
2022/01/29 04:37:21;;;;;;;1.00;0.38;;;;;;;12.23;100.00;100656.66;5023012;28;20056;-52
2022/01/29 04:40:24;;;;;;;0.13;0.13;;;;;;;12.21;100.00;100661.94;5023427;28;20059;-52
2022/01/29 04:43:28;;;;;;;0.15;0.15;;;;;;;12.22;100.00;100663.47;5031277;28;20056;-52
2022/01/29 04:46:31;;;;;;;0.10;0.00;;;;;;;12.18;100.00;100658.84;5026170;28;20056;-53
2022/01/29 04:49:35;;;;;;;6.32;0.15;;;;;;;12.18;100.00;100656.03;5065561;28;20066;-52
2022/01/29 04:52:38;;;;;;;0.40;0.30;;;;;;;12.20;100.00;100655.56;5082241;28;20067;-52
2022/01/29 04:55:42;;;;;;;0.25;0.20;;;;;;;12.22;100.00;100660.66;5076694;28;20047;-52
2022/01/29 04:58:45;;;;;;;4.90;0.30;;;;;;;12.24;100.00;100660.97;5045363;28;20063;-52
2022/01/29 05:01:49;;;;;;;0.47;0.32;;;;;;;12.26;100.00;100658.53;5048841;28;20575;-52
2022/01/29 05:04:52;;;;;;;0.10;0.00;;;;;;;12.15;100.00;100654.16;5048227;28;20068;-52
2022/01/29 05:07:55;;;;;;;0.10;0.10;;;;;;;12.10;100.00;100649.22;5050225;28;20071;-52
2022/01/29 05:10:59;;;;;;;0.10;0.05;;;;;;;12.11;100.00;100647.97;5028428;28;20059;-52
2022/01/29 05:14:05;;;;;;;0.22;0.22;;;;;;;12.20;100.00;100655.56;5009944;28;20060;-52
2022/01/29 05:27:28;;;;;;;0.43;0.20;;;;;;;12.29;100.00;100657.56;4995936;28;20552;-52
2022/01/29 05:30:32;;;;;;;0.35;0.22;;;;;;;12.24;100.00;100653.38;5004807;28;20073;-52
2022/01/29 05:33:35;;;;;;;0.32;0.10;;;;;;;12.16;100.00;100644.56;4998063;28;20052;-52
2022/01/29 05:36:39;;;;;;;0.10;0.05;;;;;;;12.14;100.00;100641.47;5037916;28;20059;-53
2022/01/29 05:39:43;;;;;;;0.63;0.20;;;;;;;11.99;100.00;100634.97;5040729;28;20068;-53
2022/01/29 05:42:46;;;;;;;0.30;0.10;;;;;;;11.88;100.00;100640.25;5019871;28;20056;-52
2022/01/29 05:45:49;;;;;;;0.13;0.13;;;;;;;11.91;100.00;100639.28;5001708;28;20076;-52
2022/01/29 05:48:53;;;;;;;0.20;0.20;;;;;;;11.85;100.00;100632.78;5012605;28;20091;-52
2022/01/29 05:51:56;;;;;;;0.43;0.20;;;;;;;11.83;100.00;100632.47;5075087;28;20054;-52
2022/01/29 05:54:59;;;;;;;0.63;0.10;;;;;;;11.82;100.00;100628.16;5064103;28;20408;-53
2022/01/29 05:58:03;;;;;;;15.80;0.90;;;;;;;11.91;100.00;100630.91;5069729;28;20048;-52
2022/01/29 06:01:06;;;;;;;0.20;0.20;;;;;;;12.00;100.00;100624.56;5036155;28;20431;-52
2022/01/29 06:04:09;;;;;;;0.00;0.00;;;;;;;12.08;100.00;100620.22;5058571;28;20051;-53
2022/01/29 06:07:13;;;;;;;0.43;0.40;;;;;;;12.08;100.00;100626.56;5068985;28;20074;-54
2022/01/29 06:10:16;;;;;;;2.20;0.13;;;;;;;12.10;100.00;100621.31;5068854;28;20570;-52
2022/01/29 06:13:20;;;;;;;0.82;0.10;;;;;;;12.18;100.00;100628.13;5090949;28;20221;-52
2022/01/29 06:16:23;;;;;;;0.57;0.57;;;;;;;12.27;100.00;100626.53;5086625;28;20055;-52
2022/01/29 06:19:27;;;;;;;0.28;0.20;;;;;;;12.32;100.00;100634.31;5070504;28;20051;-52
2022/01/29 06:22:32;;;;;;;2.83;0.22;;;;;;;12.36;100.00;100634.91;5060530;28;20055;-53
2022/01/29 06:25:36;;;;;;;0.30;0.20;;;;;;;12.38;100.00;100633.19;5079028;28;20059;-52
2022/01/29 06:28:40;;;;;;;0.10;0.10;;;;;;;12.32;100.00;100634.31;5029603;28;20060;-52
2022/01/29 06:31:48;;;;;;;0.15;0.15;;;;;;;12.30;100.00;100642.38;5041525;28;20079;-52
2022/01/29 06:34:52;;;;;;;0.32;0.32;;;;;;;12.19;100.00;100615.69;5031199;28;20052;-53
2022/01/29 06:37:55;;;;;;;0.10;0.00;;;;;;;12.14;100.00;100610.75;5068688;28;20051;-52
2022/01/29 06:40:59;;;;;;;1.85;0.52;;;;;;;12.09;100.00;100611.38;5044479;28;20485;-53
2022/01/29 06:44:02;;;;;;;1.30;0.10;;;;;;;12.09;100.00;100588.25;4980537;28;20059;-52
2022/01/29 06:47:06;;;;;;;4.15;0.40;;;;;;;12.09;100.00;100577.09;5058521;28;20413;-53
2022/01/29 06:50:09;;;;;;;6.60;0.52;;;;;;;12.11;100.00;100575.38;5052976;28;20060;-52
2022/01/29 06:53:13;;;;;;;0.10;0.10;;;;;;;12.24;100.00;100557.66;5085879;27;20087;-52
2022/01/29 06:56:17;;;;;;;11.50;0.38;;;;;;;12.21;100.00;100555.81;5044394;28;20387;-52
2022/01/29 06:59:20;;;;;;;0.30;0.30;;;;;;;12.23;100.00;100550.53;5074274;28;20060;-52
2022/01/29 07:02:24;;;;;;;1.42;0.38;;;;;;;12.25;100.00;100546.03;5078577;28;20406;-52
2022/01/29 07:05:27;;;;;;;0.90;0.28;;;;;;;12.19;100.00;100565.41;5060878;28;20063;-52
2022/01/29 07:08:34;;;;;;;0.10;0.10;;;;;;;12.31;100.00;100560.13;5081053;28;20523;-52
2022/01/29 07:11:37;;;;;;;0.10;0.10;;;;;;;12.37;100.00;100569.41;5066955;28;20119;-52
2022/01/29 07:14:41;;;;;;;0.40;0.10;;;;;;;12.36;100.00;100562.28;5051706;28;20413;-52
2022/01/29 07:17:44;;;;;;;0.30;0.20;;;;;;;12.30;100.00;100558.59;5067650;28;20071;-52
2022/01/29 07:20:48;;;;;;;0.52;0.40;;;;;;;12.33;100.00;100541.66;5081143;28;20409;-52
2022/01/29 07:23:51;;;;;;;1.27;0.38;;;;;;;12.34;100.00;100536.84;5070185;28;20388;-52
2022/01/29 07:26:54;;;;;;;0.65;0.20;;;;;;;12.39;100.00;100536.97;5084636;27;20453;-52
2022/01/29 07:29:58;;;;;;;4.40;0.30;;;;;;;12.45;100.00;100537.13;5080234;28;20416;-53
2022/01/29 07:33:02;;;;;;;0.32;0.30;;;;;;;12.45;100.00;100549.03;5095893;27;20059;-52
2022/01/29 07:36:05;;;;;;;4.03;0.90;;;;;;;12.49;100.00;100532.13;5082293;28;20059;-52
2022/01/29 07:39:09;;;;;;;4.88;0.65;;;;;;;12.64;100.00;100522.59;5083260;28;20059;-52
2022/01/29 07:42:12;;;;;;;2.03;0.82;;;;;;;12.78;100.00;100504.34;5059353;28;20064;-52
2022/01/29 07:45:15;;;;;;;3.97;0.70;;;;;;;12.79;100.00;100505.91;5008893;28;20053;-52
2022/01/29 07:48:19;;;;;;;0.77;0.32;;;;;;;12.72;100.00;100503.44;5064898;28;20055;-52
2022/01/29 07:51:22;;;;;;;4.18;0.70;;;;;;;12.61;100.00;100512.34;5097865;28;20050;-52
2022/01/29 07:54:25;;;;;;;1.45;0.45;;;;;;;12.63;100.00;100525.84;5080274;28;20396;-52
2022/01/29 07:57:29;;;;;;;1.02;0.20;;;;;;;12.72;100.00;100523.00;5092872;28;20059;-52
2022/01/29 08:00:32;;;;;;;9.00;0.63;;;;;;;12.79;100.00;100528.25;5097282;28;20137;-52
2022/01/29 08:03:36;;;;;;;0.57;0.40;;;;;;;12.79;100.00;100529.03;5077489;27;20055;-52
2022/01/29 08:06:39;;;;;;;9.43;0.28;;;;;;;12.82;100.00;100527.31;5061473;27;21357;-53
2022/01/29 08:09:43;;;;;;;1.38;0.17;;;;;;;12.87;100.00;100526.66;5084868;27;20056;-53
2022/01/29 08:12:46;;;;;;;0.35;0.30;;;;;;;12.92;100.00;100537.19;5081698;28;20067;-52
2022/01/29 08:15:49;;;;;;;1.00;0.20;;;;;;;12.92;100.00;100537.19;5072322;28;20051;-52
2022/01/29 08:18:53;;;;;;;0.93;0.43;;;;;;;12.93;100.00;100528.31;5065805;27;20400;-52
2022/01/29 08:21:56;;;;;;;0.65;0.55;;;;;;;12.93;100.00;100533.13;5091446;28;20483;-53
2022/01/29 08:25:01;;;;;;;10.65;0.88;;;;;;;12.87;100.00;100529.44;5039274;28;20107;-52
2022/01/29 08:28:05;;;;;;;8.05;1.33;;;;;;;12.86;100.00;100522.31;5039698;28;20049;-53
2022/01/29 08:31:09;;;;;;;3.40;1.00;;;;;;;12.82;100.00;100504.94;5014501;28;20056;-52
2022/01/29 08:34:13;;;;;;;4.15;0.75;;;;;;;12.83;100.00;100512.06;4991854;28;20429;-53
2022/01/29 08:37:16;;;;;;;1.13;0.60;;;;;;;12.82;100.00;100510.53;4978919;28;20060;-52
2022/01/29 08:40:20;;;;;;;5.18;0.75;;;;;;;12.79;100.00;100514.28;5003673;28;20060;-52
2022/01/29 08:43:26;;;;;;;3.42;0.45;;;;;;;12.85;100.00;100490.00;5013343;28;20058;-52
2022/01/29 08:46:30;;;;;;;1.52;0.17;;;;;;;12.93;100.00;100482.81;5005618;28;20076;-53
2022/01/29 08:49:34;;;;;;;0.20;0.20;;;;;;;12.89;100.00;100485.00;5024288;28;20060;-52
2022/01/29 08:52:38;;;;;;;5.35;1.10;;;;;;;13.01;100.00;100486.03;5028269;28;20064;-52
2022/01/29 08:55:42;;;;;;;2.30;0.52;;;;;;;13.12;100.00;100495.47;5055680;28;20067;-53
2022/01/29 08:58:46;;;;;;;1.92;0.40;;;;;;;13.17;100.00;100497.56;5056126;28;20075;-52
2022/01/29 09:01:50;;;;;;;4.25;0.57;;;;;;;13.22;100.00;100482.16;5086278;28;20381;-52
2022/01/29 09:04:57;;;;;;;0.30;0.10;;;;;;;13.25;100.00;100486.81;5057646;28;20400;-53
2022/01/29 09:08:01;;;;;;;4.85;0.68;;;;;;;13.28;100.00;100481.03;5059704;28;20059;-53
2022/01/29 09:11:05;;;;;;;2.45;0.45;;;;;;;13.30;100.00;100472.13;5064071;28;20516;-53
2022/01/29 09:14:09;;;;;;;0.20;0.20;;;;;;;13.31;100.00;100480.06;5080526;28;20059;-53
2022/01/29 09:17:12;;;;;;;0.38;0.38;;;;;;;13.43;100.00;100490.22;5042267;28;20072;-53
2022/01/29 09:20:15;;;;;;;0.82;0.40;;;;;;;13.46;100.00;100480.88;5042961;28;20051;-52
2022/01/29 09:23:19;;;;;;;1.35;0.63;;;;;;;13.51;100.00;100488.56;5066403;28;20068;-52
2022/01/29 09:26:23;;;;;;;0.65;0.40;;;;;;;13.52;100.00;100487.34;5073170;28;20492;-52
2022/01/29 09:29:27;;;;;;;0.68;0.38;;;;;;;13.64;100.00;100485.53;5076799;28;20063;-53
2022/01/29 09:32:31;;;;;;;1.95;0.20;;;;;;;13.71;100.00;100468.34;5073394;28;20071;-52
2022/01/29 09:35:34;;;;;;;0.38;0.20;;;;;;;13.80;100.00;100465.44;5072083;28;20122;-53
2022/01/29 09:38:38;;;;;;;0.47;0.30;;;;;;;13.88;100.00;100474.25;5077014;28;20051;-53
2022/01/29 09:41:45;;;;;;;0.32;0.32;;;;;;;13.97;100.00;100474.91;5073944;27;20078;-52
2022/01/29 09:44:49;;;;;;;1.10;0.38;;;;;;;14.07;100.00;100478.38;5071836;28;20054;-52
2022/01/29 09:48:01;;;;;;;1.10;0.20;;;;;;;14.05;100.00;100476.06;5064354;28;20522;-52
2022/01/29 09:51:08;;;;;;;1.40;0.47;;;;;;;14.04;100.00;100473.72;5042666;28;20747;-53
2022/01/29 09:54:12;;;;;;;0.50;0.30;;;;;;;14.12;100.00;100455.28;5033903;28;20060;-52
2022/01/29 09:57:16;;;;;;;18.48;1.85;;;;;;;14.18;100.00;100459.72;5051711;28;20052;-53
2022/01/29 10:00:20;;;;;;;0.95;0.20;;;;;;;14.27;100.00;100458.84;5033957;28;20052;-52
2022/01/29 10:03:23;;;;;;;0.00;0.00;;;;;;;14.29;100.00;100467.56;5071599;28;20055;-53
2022/01/29 10:06:27;;;;;;;0.30;0.13;;;;;;;14.26;100.00;100458.06;5024337;28;20446;-52
2022/01/29 10:09:34;;;;;;;1.35;0.20;;;;;;;14.42;100.00;100443.53;4998611;28;20069;-53
2022/01/29 10:12:37;;;;;;;5.93;0.22;;;;;;;14.45;100.00;100458.63;5033788;28;20065;-53
2022/01/29 10:15:41;;;;;;;0.43;0.43;;;;;;;14.50;100.00;100449.53;5050833;28;20516;-52
2022/01/29 10:19:02;;;;;;;1.48;0.10;;;;;;;14.51;100.00;100472.72;5032464;28;20079;-53
2022/01/29 10:22:05;;;;;;;0.10;0.10;;;;;;;14.54;100.00;100494.94;5009254;28;20093;-53
2022/01/29 10:25:20;;;;;;;0.10;0.10;;;;;;;14.61;100.00;100500.13;5062767;28;20060;-52
2022/01/29 10:28:26;;;;;;;0.32;0.20;;;;;;;14.59;100.00;100473.84;5038754;28;20048;-52
2022/01/29 10:31:44;;;;;;;0.52;0.40;;;;;;;14.61;100.00;100493.75;5031213;28;20524;-52
2022/01/29 10:34:54;;;;;;;0.63;0.63;;;;;;;14.64;100.00;100482.31;5022300;28;20056;-53
2022/01/29 10:37:57;;;;;;;0.30;0.10;;;;;;;14.65;100.00;100483.88;5018959;28;20059;-53
2022/01/29 10:41:18;;;;;;;0.10;0.10;;;;;;;14.66;100.00;100509.91;5040106;28;20103;-53
2022/01/29 10:44:22;;;;;;;0.32;0.30;;;;;;;14.75;100.00;100496.50;5071998;28;20440;-53
2022/01/29 10:47:26;;;;;;;1.10;0.65;;;;;;;14.85;100.00;100502.78;5015873;28;20068;-52
2022/01/29 10:50:30;;;;;;;0.00;0.00;;;;;;;14.91;100.00;100501.59;5092194;28;20059;-53
2022/01/29 10:53:34;;;;;;;0.17;0.17;;;;;;;14.94;100.00;100511.81;5074048;27;20067;-53
2022/01/29 10:56:53;;;;;;;0.98;0.20;;;;;;;14.92;100.00;100514.34;5106641;27;20059;-53
2022/01/29 10:59:56;;;;;;;2.85;0.20;;;;;;;15.02;100.00;100515.75;5064931;28;20142;-52
2022/01/29 11:03:01;;;;;;;0.10;0.10;;;;;;;15.13;100.00;100513.09;5062457;28;20056;-53
2022/01/29 11:06:07;;;;;;;0.10;0.00;;;;;;;15.28;100.00;100523.47;5069342;28;20055;-53
2022/01/29 11:09:13;;;;;;;0.20;0.17;;;;;;;15.31;100.00;100506.41;5085682;27;20063;-53
2022/01/29 11:12:24;;;;;;;0.77;0.30;;;;;;;15.40;100.00;100494.28;5046602;28;20091;-53
2022/01/29 11:15:29;;;;;;;0.50;0.30;;;;;;;15.49;100.00;100488.53;5078296;28;20059;-53
2022/01/29 11:18:34;;;;;;;0.65;0.30;;;;;;;15.42;100.00;100500.16;5084905;28;20055;-53
2022/01/29 11:21:40;;;;;;;2.97;0.30;;;;;;;15.42;100.00;100505.78;5069868;28;20091;-53
2022/01/29 11:24:44;;;;;;;0.52;0.10;;;;;;;15.35;100.00;100489.38;5015940;28;20056;-53
2022/01/29 11:27:47;;;;;;;3.63;0.68;;;;;;;15.37;100.00;100509.28;5027162;28;20095;-53
2022/01/29 11:31:15;;;;;;;0.10;0.10;;;;;;;15.37;100.00;100515.69;5011248;28;20539;-53
2022/01/29 11:34:20;;;;;;;3.25;0.28;;;;;;;15.18;100.00;100494.78;5050935;28;20099;-53
2022/01/29 11:37:40;;;;;;;0.32;0.25;;;;;;;14.95;100.00;100518.97;5056655;28;20575;-53
2022/01/29 11:40:58;;;;;;;1.40;0.77;;;;;;;14.76;100.00;100522.53;5006306;28;20059;-53
2022/01/29 11:44:25;;;;;;;0.75;0.40;;;;;;;14.71;100.00;100529.59;5024298;28;20056;-53
2022/01/29 11:47:29;;;;;;;2.75;0.50;;;;;;;14.56;100.00;100522.47;5023218;28;20061;-53
2022/01/29 11:50:33;;;;;;;0.40;0.30;;;;;;;14.51;100.00;100576.44;5015483;28;20071;-53
2022/01/29 11:53:45;;;;;;;3.17;0.25;;;;;;;14.44;100.00;100567.13;5077544;28;20158;-53
2022/01/29 11:57:06;;;;;;;2.83;0.80;;;;;;;14.31;100.00;100610.75;5082821;28;20701;-53
2022/01/29 12:00:34;;;;;;;0.55;0.20;;;;;;;14.15;100.00;100591.56;5054533;28;20055;-53
2022/01/29 12:03:44;;;;;;;5.68;0.52;;;;;;;13.94;100.00;100570.31;5029073;28;20131;-52
2022/01/29 12:10:34;;;;;;;0.10;0.10;;;;;;;13.38;100.00;100580.41;4958038;28;20058;-52
2022/01/29 12:13:40;;;;;;;1.48;0.63;;;;;;;13.20;100.00;100560.97;4969775;28;20081;-52
2022/01/29 12:16:59;;;;;;;1.15;0.75;;;;;;;13.02;100.00;100541.47;4939013;28;20053;-52
2022/01/29 12:20:06;;;;;;;1.38;0.40;;;;;;;13.03;100.00;100548.63;4969667;28;20062;-52
2022/01/29 12:23:09;;;;;;;1.45;0.45;;;;;;;12.99;100.00;100548.03;4934058;28;20499;-52
2022/01/29 12:26:19;;;;;;;6.07;1.02;;;;;;;12.96;100.00;100509.81;4945844;28;20061;-52
2022/01/29 12:29:23;;;;;;;8.88;0.85;;;;;;;12.92;100.00;100531.59;4932931;28;20067;-52
2022/01/29 12:32:26;;;;;;;8.05;0.73;;;;;;;12.79;100.00;100529.03;4935783;28;20057;-52
2022/01/29 12:35:57;;;;;;;1.40;0.80;;;;;;;12.79;100.00;100506.69;4991757;28;20103;-52
2022/01/29 12:39:06;;;;;;;18.35;0.93;;;;;;;12.75;100.00;100499.72;5014931;28;20132;-52
2022/01/29 12:42:27;;;;;;;5.85;0.82;;;;;;;12.74;100.00;100492.56;4998258;28;20054;-52
2022/01/29 12:45:31;;;;;;;;;;;;;;;12.74;100.00;100500.94;5037728;28;20060;-52
2022/01/29 12:48:34;;;;;;;2.13;0.43;;;;;;;12.80;100.00;100488.63;5036648;28;19916;-52
2022/01/29 12:51:58;;;;;;;1.92;0.60;;;;;;;12.89;100.00;100504.56;5022998;28;20071;-52
2022/01/29 12:55:04;;;;;;;9.93;1.50;;;;;;;12.91;100.00;100502.06;5028610;28;20532;-52
2022/01/29 12:58:07;;;;;;;1.80;0.45;;;;;;;13.00;100.00;100555.16;4993055;28;20076;-53
2022/01/29 13:01:13;;;;;;;5.45;0.47;;;;;;;13.07;100.00;100529.66;4979822;28;20117;-52
2022/01/29 13:04:19;;;;;;;12.35;1.85;;;;;;;13.04;100.00;100538.97;4991383;28;20382;-52
2022/01/29 13:07:22;;;;;;;10.25;1.70;;;;;;;12.90;100.00;100539.69;4998234;28;20053;-52
2022/01/29 13:10:32;;;;;;;12.93;1.40;;;;;;;12.80;100.00;100540.97;5010751;28;20052;-53
2022/01/29 13:13:36;;;;;;;7.82;1.17;;;;;;;12.80;100.00;100552.16;5018217;28;20053;-52
2022/01/29 13:16:39;;;;;;;19.98;1.88;;;;;;;12.90;100.00;100542.47;5001139;28;20513;-52
2022/01/29 13:19:44;;;;;;;9.13;1.38;;;;;;;12.92;100.00;100565.91;5013473;28;20120;-52
2022/01/29 13:22:48;;;;;;;10.15;0.82;;;;;;;13.03;100.00;100581.38;5004371;28;20072;-52
2022/01/29 13:25:51;;;;;;;4.10;1.33;;;;;;;13.04;100.00;100547.34;5034317;28;20049;-52
2022/01/29 13:29:05;;;;;;;1.48;0.50;;;;;;;13.11;100.00;100577.78;5023212;28;20058;-53
2022/01/29 13:32:12;;;;;;;8.10;1.02;;;;;;;13.16;100.00;100590.34;5021240;28;20064;-53
2022/01/29 13:35:30;;;;;;;10.07;1.88;;;;;;;13.16;100.00;100595.94;5017938;28;20054;-52
2022/01/29 13:38:39;;;;;;;6.28;0.98;;;;;;;13.12;100.00;100584.94;5008957;28;20054;-52
2022/01/29 13:41:42;;;;;;;2.33;1.58;;;;;;;13.14;100.00;100613.22;5016552;28;20536;-52
2022/01/29 13:45:08;;;;;;;7.75;1.40;;;;;;;13.06;100.00;100581.22;4991800;28;20100;-53
2022/01/29 13:48:13;;;;;;;1.98;0.90;;;;;;;13.05;100.00;100590.09;5027449;28;20064;-52
2022/01/29 13:51:32;;;;;;;6.10;1.95;;;;;;;13.00;100.00;100566.34;5009484;28;20103;-52
2022/01/29 13:54:36;;;;;;;6.22;0.90;;;;;;;13.05;100.00;100596.47;5020815;28;20060;-52
2022/01/29 13:58:04;;;;;;;2.58;1.25;;;;;;;13.11;100.00;100591.78;5044050;28;20068;-52
2022/01/29 14:01:07;;;;;;;2.47;0.70;;;;;;;12.97;100.00;100575.69;5038962;28;20135;-51
2022/01/29 14:04:11;;;;;;;10.13;1.30;;;;;;;12.85;100.00;100599.03;5026346;28;20056;-51
2022/01/29 14:07:20;;;;;;;8.52;1.27;;;;;;;12.78;100.00;100577.00;5049068;28;20041;-51
2022/01/29 14:10:23;;;;;;;7.53;1.20;;;;;;;12.75;100.00;100594.75;5050389;28;20052;-52
2022/01/29 14:13:29;;;;;;;9.18;0.73;;;;;;;12.80;100.00;100575.28;5052694;28;20068;-53
2022/01/29 14:16:32;;;;;;;0.95;0.75;;;;;;;12.77;100.00;100597.84;5052741;28;20401;-53
2022/01/29 14:19:37;;;;;;;2.58;0.50;;;;;;;12.78;100.00;100602.94;5052691;28;20421;-52
2022/01/29 14:22:42;;;;;;;1.45;0.52;;;;;;;12.81;100.00;100601.22;5052922;28;20056;-52
2022/01/29 14:25:46;;;;;;;6.57;0.75;;;;;;;12.72;100.00;100606.84;5051723;28;20044;-53